Keyes, OK (73947)

6:28 AM CST on December 20, 2014 (GMT -0600)
Fort Wiegers | Change Station
CLOSE
Current Station
Personal Weather Station
Location: Elkhart, KS
Elevation: 3554 ft
Nearby Weather Stations

Elev 3554 ft 37.04 °N, 101.97 °W | Updated 3 seconds ago

Partly Cloudy
Partly Cloudy
25.5 °F
Feels Like 19 °F
N
5.0
Wind Variable Wind from SW
Gusts 7.0 mph

Today
High -- | Low -- °F
--% Chance of Precip.
Yesterday
High -- | Low -- °F
Precip. -- in
7:57 AM 5:35 PM
Waning Crescent, 3% visible
Pressure 30.08 in
Visibility 1.2 miles
Clouds Mostly Cloudy 200 ft
Windchill 19 °F
Dew Point 23 °F
Humidity 89%
Rainfall 0.00 in
Snow Depth Not available.
UV 0 out of 12
Pollen 6.90 out of 12
Air Quality Not available.
Flu Activity Not available.
SPECI KGUY 201221Z AUTO 20008KT 1 1/4SM BR BKN002 M02/M03 A3008 RMK AO2 T10171033

More Conditions Fewer Conditions

Pressure 30.08 in
Visibility 1.2 miles
Clouds Mostly Cloudy 200 ft
Windchill 19 °F
Dew Point 23 °F
Humidity 89%
Rainfall 0.00 in
Snow Depth Not available.
UV 0 out of 12
Pollen 6.90 out of 12
Air Quality Not available.
Flu Activity Not available.
SPECI KGUY 201221Z AUTO 20008KT 1 1/4SM BR BKN002 M02/M03 A3008 RMK AO2 T10171033

More Conditions Fewer Conditions

Nowcast | as of 5:16 am CST on December 20, 2014

Patchy fog will affect portions of the Oklahoma and Texas panhandles through 8 am this morning. The fog has mainly been located across the western Texas Panhandle but as we approach sunrise fog will spread eastward to impact the better part of the panhandles. Visibility will range from 1 mile to 5 miles with isolated spots dropping as low as a quarter mile. Use caution when driving this morning.

×

10-Day Weather Forecast

Almanac

Astronomy

Dec. 20, 2014 Rise Set
Actual Time
Civil Twilight
Nautical Twilight
Astronomical Twilight
Moon
Length of Visible Light
Length of Day
Tomorrow will be .
, % of the Moon is Illuminated

Today's Extremes

State Highs State Lows

Community

WunderPhotos

Upload Photos

1,779,163 photos uploaded!

WunderBlogs® & News

Nearby

Air Quality

  Air Quality AQ Index Pollutant
Not available.

Snow Depth

Station Depth Elevation

Earthquake Activity

City Distance Mag. Time & Date
Minimum magnitude displayed is 2.5.

Coastal Water Temperatures

Place Temperature

Nearby Weather Stations